Time;durP1;ratioP1;P1;durP2;ratioP2;P2;SDS_P1;SDS_P2;PMS_P1;PMS_P2;Temp;Humidity;BMP_temperature;BMP_pressure;BME280_temperature;BME280_humidity;BME280_pressure;Samples;Min_cycle;Max_cycle;Signal;HPM_P1;HPM_P2
2023/04/29 00:00:42;;;;;;;73.43;28.58;;;;;;;9.54;100.00;101405.53;5163329;22;20057;-70
2023/04/29 00:03:08;;;;;;;75.18;29.15;;;;;;;9.52;100.00;101408.91;5447920;22;20139;-71
2023/04/29 00:05:33;;;;;;;74.22;27.85;;;;;;;9.48;100.00;101405.28;5234146;22;20557;-70
2023/04/29 00:07:58;;;;;;;79.03;31.67;;;;;;;9.45;100.00;101418.19;4995008;28;20034;-70
2023/04/29 00:10:24;;;;;;;77.00;28.58;;;;;;;9.42;100.00;101415.47;5411060;22;21289;-70
2023/04/29 00:12:50;;;;;;;77.13;30.60;;;;;;;9.39;100.00;101418.81;5037777;28;20037;-70
2023/04/29 00:15:16;;;;;;;71.40;28.55;;;;;;;9.38;100.00;101416.16;5225518;22;20053;-76
2023/04/29 00:17:41;;;;;;;74.80;28.83;;;;;;;9.39;100.00;101424.03;5195480;22;20477;-70
2023/04/29 00:20:07;;;;;;;72.28;29.35;;;;;;;9.43;100.00;101425.03;5220280;22;20490;-70
2023/04/29 00:22:33;;;;;;;70.32;30.05;;;;;;;9.38;100.00;101411.88;5416343;22;20023;-70
2023/04/29 00:24:58;;;;;;;76.53;29.00;;;;;;;9.36;100.00;101425.66;5422393;22;20144;-70
2023/04/29 00:27:23;;;;;;;70.95;28.90;;;;;;;9.33;100.00;101430.72;5422327;22;20030;-70
2023/04/29 00:29:49;;;;;;;72.28;28.13;;;;;;;9.31;100.00;101440.16;5209426;22;20049;-76
2023/04/29 00:32:14;;;;;;;64.25;27.60;;;;;;;9.29;100.00;101431.44;5248860;22;20049;-76
2023/04/29 00:34:39;;;;;;;68.07;28.25;;;;;;;9.26;100.00;101436.53;5286667;22;20023;-70
2023/04/29 00:37:05;;;;;;;65.45;27.52;;;;;;;9.20;100.00;101438.03;5316589;22;20416;-70
2023/04/29 00:41:59;;;;;;;63.90;27.50;;;;;;;9.16;100.00;101443.94;5045696;22;20108;-70
2023/04/29 00:44:25;;;;;;;60.53;24.77;;;;;;;9.16;100.00;101438.75;5436374;22;20028;-70
2023/04/29 00:46:50;;;;;;;60.25;26.48;;;;;;;9.14;100.00;101437.81;5323006;22;20517;-70
2023/04/29 00:54:23;;;;;;;66.60;26.95;;;;;;;9.05;100.00;101440.94;5527178;22;20068;-70
2023/04/29 00:56:49;;;;;;;61.33;26.75;;;;;;;9.04;100.00;101446.09;5035065;28;20041;-70
2023/04/29 00:59:15;;;;;;;58.03;26.40;;;;;;;9.03;100.00;101446.91;5111935;22;20033;-70
2023/04/29 01:01:41;;;;;;;61.05;26.17;;;;;;;9.03;100.00;101455.56;5293772;22;20156;-70
2023/04/29 01:04:07;;;;;;;57.67;25.20;;;;;;;9.04;100.00;101454.75;5225743;22;20120;-70
2023/04/29 01:06:45;;;;;;;59.20;26.30;;;;;;;9.05;100.00;101450.44;5234208;22;20041;-77
2023/04/29 01:09:16;;;;;;;59.87;27.03;;;;;;;9.03;100.00;101457.31;5222735;22;21491;-70
2023/04/29 01:14:13;;;;;;;59.45;26.30;;;;;;;9.00;100.00;101457.19;5353723;22;20064;-70
2023/04/29 01:16:51;;;;;;;61.33;27.45;;;;;;;9.00;100.00;101459.78;5023461;28;20091;-70
2023/04/29 01:21:52;;;;;;;59.85;26.17;;;;;;;9.08;100.00;101463.59;5251968;22;20547;-70
2023/04/29 01:24:17;;;;;;;56.03;24.95;;;;;;;9.11;100.00;101465.38;5027167;28;20047;-70
2023/04/29 01:26:50;;;;;;;54.85;25.38;;;;;;;9.11;100.00;101463.69;5257037;22;20053;-70
2023/04/29 01:29:34;;;;;;;54.00;25.77;;;;;;;9.12;100.00;101470.66;5182658;22;20020;-70
2023/04/29 01:32:07;;;;;;;59.97;26.92;;;;;;;9.10;100.00;101476.63;5225344;22;20509;-70
2023/04/29 01:37:21;;;;;;;58.08;27.23;;;;;;;9.09;100.00;101475.72;5212207;22;20055;-70
2023/04/29 01:42:25;;;;;;;61.20;26.48;;;;;;;9.04;100.00;101482.47;5487170;22;20027;-70
2023/04/29 01:44:54;;;;;;;63.85;27.15;;;;;;;9.04;100.00;101474.69;5244568;22;20753;-70
2023/04/29 01:47:20;;;;;;;61.95;27.02;;;;;;;9.05;100.00;101479.94;5137109;22;20035;-70
2023/04/29 01:49:45;;;;;;;65.78;28.30;;;;;;;9.06;100.00;101483.41;5372315;22;20068;-70
2023/04/29 01:54:55;;;;;;;73.68;29.80;;;;;;;9.08;100.00;101480.88;5150227;23;20056;-70
2023/04/29 01:59:45;;;;;;;74.32;30.40;;;;;;;9.07;100.00;101477.41;5416162;22;20053;-70
2023/04/29 02:09:45;;;;;;;76.93;30.73;;;;;;;9.09;100.00;101493.94;5154094;22;20528;-70
2023/04/29 02:12:11;;;;;;;69.85;29.20;;;;;;;9.11;100.00;101494.91;5157253;23;20184;-70
2023/04/29 02:14:36;;;;;;;72.68;29.02;;;;;;;9.12;100.00;101503.56;5015736;28;20534;-70
2023/04/29 02:17:01;;;;;;;78.90;30.38;;;;;;;9.11;100.00;101504.38;5186771;22;20031;-69
2023/04/29 02:19:27;;;;;;;77.90;29.55;;;;;;;9.10;100.00;101500.91;5246477;22;20057;-70
2023/04/29 02:21:52;;;;;;;75.07;29.63;;;;;;;9.10;100.00;101502.63;5363509;22;20112;-70
2023/04/29 02:24:18;;;;;;;83.35;31.15;;;;;;;9.10;100.00;101508.72;5038658;28;20063;-70
2023/04/29 02:26:43;;;;;;;86.68;32.15;;;;;;;9.10;100.00;101510.44;5223664;22;20050;-70
2023/04/29 02:29:08;;;;;;;75.32;30.20;;;;;;;9.09;100.00;101514.72;5223084;22;20045;-70
2023/04/29 02:31:34;;;;;;;78.22;32.40;;;;;;;9.08;100.00;101514.66;5019692;28;20025;-70
2023/04/29 02:33:59;;;;;;;78.85;31.35;;;;;;;9.07;100.00;101512.88;5211892;22;20149;-70
2023/04/29 02:36:25;;;;;;;81.00;30.15;;;;;;;9.09;100.00;101527.72;5205438;22;20804;-70
2023/04/29 02:38:52;;;;;;;74.95;30.33;;;;;;;9.06;100.00;101522.41;5548796;22;20989;-70
2023/04/29 02:41:18;;;;;;;76.65;29.67;;;;;;;9.04;100.00;101524.94;5092495;23;20120;-70
2023/04/29 02:43:43;;;;;;;80.32;31.88;;;;;;;9.04;100.00;101531.88;5366020;22;20080;-70
2023/04/29 02:46:09;;;;;;;82.97;31.40;;;;;;;9.04;100.00;101534.47;5243590;22;20058;-70
2023/04/29 02:48:35;;;;;;;79.50;31.38;;;;;;;9.01;100.00;101543.03;5184619;23;20270;-70
2023/04/29 02:51:00;;;;;;;83.18;32.22;;;;;;;9.02;100.00;101546.50;5223884;22;20607;-70
2023/04/29 02:53:26;;;;;;;82.82;31.55;;;;;;;9.00;100.00;101542.97;5190066;23;20042;-70
2023/04/29 02:55:51;;;;;;;83.20;31.42;;;;;;;8.99;100.00;101547.28;5375211;22;20110;-70
2023/04/29 03:02:46;;;;;;;;;;;;;;;;;;;;;
2023/04/29 03:05:52;;;;;;;79.93;30.02;;;;;;;8.95;100.00;101560.06;5075906;28;20063;-96
2023/04/29 03:09:29;;;;;;;81.80;30.27;;;;;;;8.94;100.00;101548.78;4974061;28;20130;-96
2023/04/29 03:15:20;;;;;;;86.88;32.60;;;;;;;8.96;100.00;101552.31;4992823;28;20070;-96
2023/04/29 03:17:53;;;;;;;76.72;29.95;;;;;;;8.94;100.00;101559.19;5010297;28;20076;-96
2023/04/29 03:20:32;;;;;;;80.80;30.38;;;;;;;8.92;100.00;101555.66;5046374;28;20084;-96
2023/04/29 03:23:16;;;;;;;83.80;32.08;;;;;;;8.95;100.00;101560.06;5046936;28;20033;-96
2023/04/29 03:25:54;;;;;;;90.30;31.48;;;;;;;8.94;100.00;101563.50;5050543;28;20031;-96
2023/04/29 03:28:53;;;;;;;86.03;32.22;;;;;;;8.92;100.00;101562.53;5050028;28;20506;-96
2023/04/29 03:31:36;;;;;;;82.35;31.40;;;;;;;8.92;100.00;101563.44;5067180;28;20067;-96
2023/04/29 03:34:30;;;;;;;77.07;31.23;;;;;;;8.93;100.00;101567.78;5048542;28;20011;-96
2023/04/29 03:37:22;;;;;;;76.65;29.52;;;;;;;8.92;100.00;101567.72;5051290;28;20032;-96
2023/04/29 03:43:12;;;;;;;75.05;29.65;;;;;;;8.92;100.00;101578.13;5054349;28;20029;-96
2023/04/29 03:45:49;;;;;;;76.85;30.25;;;;;;;8.93;100.00;101570.41;5047066;28;20064;-96
2023/04/29 03:48:26;;;;;;;76.07;30.05;;;;;;;8.96;100.00;101573.13;5045523;28;20037;-96
2023/04/29 03:51:09;;;;;;;;;;;;;;;;;;;;;
2023/04/29 03:57:17;;;;;;;77.18;29.70;;;;;;;8.95;100.00;101576.56;5066940;28;20040;-96
2023/04/29 03:59:49;;;;;;;72.55;28.58;;;;;;;8.93;100.00;101578.19;5044412;28;20049;-96
2023/04/29 04:02:45;;;;;;;73.78;29.48;;;;;;;8.94;100.00;101579.97;5053098;28;20068;-96
2023/04/29 04:05:32;;;;;;;70.18;28.48;;;;;;;8.92;100.00;101583.31;5050113;28;20033;-96
2023/04/29 04:08:21;;;;;;;71.15;28.98;;;;;;;8.93;100.00;101586.00;5048208;28;20051;-96
2023/04/29 04:11:36;;;;;;;73.07;28.45;;;;;;;8.95;100.00;101593.84;4967358;28;20034;-96
2023/04/29 04:13:58;;;;;;;68.68;27.75;;;;;;;8.99;100.00;101599.28;4982909;28;20050;-96
2023/04/29 04:16:33;;;;;;;66.32;27.73;;;;;;;8.99;100.00;101594.06;4996181;28;20026;-96
2023/04/29 04:19:29;;;;;;;75.78;28.30;;;;;;;9.04;100.00;101591.66;4993604;28;20281;-96
2023/04/29 04:22:40;;;;;;;65.32;26.48;;;;;;;9.05;100.00;101599.53;5001921;28;20072;-96
2023/04/29 04:25:33;;;;;;;65.22;27.95;;;;;;;9.07;100.00;101609.06;4980971;28;20045;-96
2023/04/29 04:28:22;;;;;;;64.68;26.13;;;;;;;9.05;100.00;101609.00;4988987;28;20073;-96
2023/04/29 04:30:51;;;;;;;65.00;26.95;;;;;;;9.03;100.00;101616.75;4997267;28;20042;-96
2023/04/29 04:33:19;;;;;;;68.50;27.42;;;;;;;9.04;100.00;101620.25;4983252;28;20026;-96
2023/04/29 04:35:45;;;;;;;156.10;61.23;;;;;;;9.04;100.00;101612.44;4997138;28;20038;-96
2023/04/29 04:38:28;;;;;;;209.27;91.72;;;;;;;9.03;100.00;101611.53;5000000;28;20034;-96
2023/04/29 04:40:54;;;;;;;92.50;38.70;;;;;;;9.05;100.00;101619.41;4989341;28;20074;-96
2023/04/29 04:43:20;;;;;;;152.38;67.80;;;;;;;9.05;100.00;101620.31;5038990;28;20017;-96
2023/04/29 04:45:50;;;;;;;309.73;133.07;;;;;;;9.07;100.00;101628.19;5036873;28;20021;-96
2023/04/29 04:53:30;;;;;;;58.47;26.08;;;;;;;9.09;100.00;101638.63;5013755;28;20045;-70
2023/04/29 04:56:00;;;;;;;62.00;25.20;;;;;;;9.09;100.00;101649.91;5270179;22;20068;-70
2023/04/29 04:58:25;;;;;;;;;;;;;;;9.14;100.00;101656.22;5223246;22;20053;-70
2023/04/29 05:00:51;;;;;;;57.05;23.73;;;;;;;9.09;100.00;101662.03;5155755;23;20723;-70
2023/04/29 05:03:16;;;;;;;57.10;25.60;;;;;;;9.05;100.00;101661.00;5029562;28;20483;-70
2023/04/29 05:05:42;;;;;;;58.95;25.25;;;;;;;9.05;100.00;101666.19;5196473;22;20031;-71
2023/04/29 05:13:15;;;;;;;51.88;24.23;;;;;;;9.06;100.00;101673.19;5143890;22;20582;-70
2023/04/29 05:20:50;;;;;;;61.63;25.38;;;;;;;9.09;100.00;101682.84;5198676;22;20061;-70
2023/04/29 05:25:51;;;;;;;58.10;24.88;;;;;;;9.05;100.00;101682.72;5126067;23;20573;-70
2023/04/29 05:28:16;;;;;;;56.28;25.90;;;;;;;9.03;100.00;101693.84;5222649;23;20050;-76
2023/04/29 05:30:42;;;;;;;56.25;25.88;;;;;;;9.03;100.00;101694.72;5249465;22;20039;-70
2023/04/29 05:33:07;;;;;;;56.90;25.20;;;;;;;9.02;100.00;101692.06;5308122;22;20360;-70
2023/04/29 05:35:43;;;;;;;55.05;24.95;;;;;;;9.03;100.00;101688.66;5071805;23;20458;-96
2023/04/29 05:41:32;;;;;;;58.28;24.48;;;;;;;9.08;100.00;101700.16;5190149;23;20445;-71
2023/04/29 05:43:57;;;;;;;62.10;25.17;;;;;;;9.08;100.00;101697.56;4994760;28;20025;-70
2023/04/29 05:46:22;;;;;;;50.92;23.85;;;;;;;9.10;100.00;101711.50;5151964;22;20083;-70
2023/04/29 05:48:49;;;;;;;52.25;24.80;;;;;;;9.13;100.00;101708.16;5301355;22;20064;-69
2023/04/29 05:51:51;;;;;;;57.10;25.50;;;;;;;9.13;100.00;101700.34;5086676;22;20042;-96
2023/04/29 05:55:07;;;;;;;;;;;;;;;;;;;;;
2023/04/29 05:58:11;;;;;;;54.97;24.35;;;;;;;9.17;100.00;101717.88;5046955;28;20108;-96
2023/04/29 06:02:11;;;;;;;51.90;23.25;;;;;;;9.17;100.00;101729.16;5022216;28;20044;-96
2023/04/29 06:08:16;;;;;;;53.67;24.88;;;;;;;9.17;100.00;101736.94;4974832;28;20039;-96
2023/04/29 06:13:53;;;;;;;68.07;28.05;;;;;;;9.14;100.00;101744.63;5083495;22;20125;-95
2023/04/29 06:17:07;;;;;;;55.95;25.02;;;;;;;9.17;100.00;101746.47;5037369;28;20470;-96
2023/04/29 06:19:36;;;;;;;52.90;24.70;;;;;;;9.16;100.00;101745.56;4954099;29;20048;-96
2023/04/29 06:22:17;;;;;;;56.70;24.67;;;;;;;9.18;100.00;101751.72;5029141;28;20037;-96
2023/04/29 06:29:56;;;;;;;53.03;23.70;;;;;;;9.21;100.00;101757.06;4122706;22;20053;-96
2023/04/29 06:32:22;;;;;;;58.53;25.58;;;;;;;9.20;100.00;101760.47;5023359;28;20033;-96
2023/04/29 06:35:21;;;;;;;58.38;25.63;;;;;;;9.18;100.00;101756.03;5018207;28;20021;-96
2023/04/29 06:37:51;;;;;;;50.22;22.88;;;;;;;9.18;100.00;101767.34;5020313;28;20037;-94
2023/04/29 06:40:16;;;;;;;55.78;24.75;;;;;;;9.21;100.00;101772.66;5127071;22;20158;-70
2023/04/29 06:42:42;;;;;;;57.72;26.13;;;;;;;9.27;100.00;101776.34;5435785;22;20566;-70
2023/04/29 06:51:23;;;;;;;57.35;24.75;;;;;;;9.34;100.00;101786.19;5118405;22;20028;-96
2023/04/29 06:53:49;;;;;;;51.58;24.05;;;;;;;9.38;100.00;101789.03;5122409;22;20049;-70
2023/04/29 06:56:40;;;;;;;53.67;23.88;;;;;;;9.41;100.00;101798.66;5199556;22;20041;-96
2023/04/29 07:02:43;;;;;;;54.45;24.77;;;;;;;9.50;100.00;101806.88;5014768;28;20025;-96
2023/04/29 07:05:39;;;;;;;50.97;23.23;;;;;;;9.54;100.00;101807.88;5047223;28;20084;-96
2023/04/29 07:18:32;;;;;;;49.50;24.08;;;;;;;9.68;100.00;101830.19;5015551;28;20053;-69
2023/04/29 07:21:01;;;;;;;50.55;24.42;;;;;;;9.70;100.00;101825.03;5221953;22;20068;-69
2023/04/29 07:23:26;;;;;;;54.67;24.05;;;;;;;9.70;100.00;101825.94;5179215;22;20061;-69
2023/04/29 07:29:08;;;;;;;52.88;23.88;;;;;;;9.77;100.00;101834.00;5095989;22;20057;-96
2023/04/29 07:31:56;;;;;;;52.50;23.30;;;;;;;9.78;100.00;101833.19;5052226;28;20025;-96
2023/04/29 07:38:22;;;;;;;53.42;23.83;;;;;;;9.78;100.00;101838.41;5023689;28;20029;-96
2023/04/29 07:41:07;;;;;;;51.25;23.80;;;;;;;9.80;100.00;101842.81;5000290;28;20037;-96
2023/04/29 07:43:33;;;;;;;49.88;23.80;;;;;;;9.88;100.00;101851.84;5281353;22;20057;-69
2023/04/29 07:51:04;;;;;;;57.38;24.15;;;;;;;9.99;100.00;101844.47;5076061;23;20085;-69
2023/04/29 07:56:06;;;;;;;51.38;24.30;;;;;;;10.13;100.00;101854.63;5194859;22;20062;-75
2023/04/29 07:58:31;;;;;;;50.55;24.20;;;;;;;10.18;100.00;101856.59;5291629;22;20020;-70
2023/04/29 08:01:09;;;;;;;528.80;270.45;;;;;;;10.26;100.00;101855.16;5278613;22;20080;-76
2023/04/29 08:03:34;;;;;;;63.72;31.77;;;;;;;10.28;100.00;101857.84;5001999;28;20132;-76
2023/04/29 08:06:02;;;;;;;52.05;25.42;;;;;;;10.33;100.00;101865.88;5196386;23;20060;-76
2023/04/29 08:08:27;;;;;;;54.38;25.70;;;;;;;10.38;100.00;101864.34;5171461;22;20053;-69
2023/04/29 08:10:52;;;;;;;46.30;23.88;;;;;;;10.42;100.00;101867.13;5042372;28;20029;-70
2023/04/29 08:16:08;;;;;;;50.00;24.63;;;;;;;10.48;100.00;101870.84;5102526;22;20053;-96
2023/04/29 08:18:41;;;;;;;49.75;23.85;;;;;;;10.50;100.00;101874.38;5034875;28;20116;-96
2023/04/29 08:21:08;;;;;;;50.97;23.77;;;;;;;10.56;100.00;101875.53;5059796;22;20344;-70
2023/04/29 08:26:09;;;;;;;47.42;23.40;;;;;;;10.68;100.00;101874.25;5208923;22;20588;-70
2023/04/29 08:31:09;;;;;;;46.67;23.73;;;;;;;10.74;100.00;101880.56;5117325;22;20166;-70
2023/04/29 08:38:33;;;;;;;50.13;24.30;;;;;;;10.94;100.00;101883.09;5063023;22;20045;-70
2023/04/29 08:41:00;;;;;;;45.35;22.42;;;;;;;11.03;100.00;101882.56;5218627;23;20394;-70
2023/04/29 08:43:26;;;;;;;42.83;21.77;;;;;;;11.14;100.00;101882.13;5239263;22;20090;-69
2023/04/29 08:50:57;;;;;;;44.55;23.33;;;;;;;11.58;100.00;101889.81;5161390;23;20035;-76
2023/04/29 08:58:40;;;;;;;47.17;22.10;;;;;;;11.59;97.14;101901.16;5217994;22;20050;-76
2023/04/29 09:01:08;;;;;;;47.22;23.73;;;;;;;11.59;97.22;101899.44;5062732;23;20060;-95
2023/04/29 09:03:51;;;;;;;43.17;22.90;;;;;;;11.58;96.68;101897.66;5037169;28;20029;-96
2023/04/29 09:06:16;;;;;;;43.35;22.08;;;;;;;11.48;95.06;101892.94;5039191;28;20559;-96
2023/04/29 09:08:42;;;;;;;44.83;22.10;;;;;;;11.40;94.69;101894.38;5036058;28;20032;-95
2023/04/29 09:11:10;;;;;;;41.47;22.02;;;;;;;11.37;95.46;101894.25;5057079;23;20050;-68
2023/04/29 09:13:36;;;;;;;62.47;30.98;;;;;;;11.39;96.17;101911.75;5137920;22;20490;-74
2023/04/29 09:16:01;;;;;;;84.38;45.63;;;;;;;11.40;95.10;101904.81;5264981;22;20144;-74
2023/04/29 09:20:53;;;;;;;42.95;23.48;;;;;;;11.66;92.51;101916.22;5105561;23;20529;-74
2023/04/29 09:23:18;;;;;;;41.03;23.15;;;;;;;11.98;95.92;101917.41;5110269;22;20991;-68
2023/04/29 09:25:56;;;;;;;37.83;20.80;;;;;;;12.35;95.48;101904.69;5252497;22;20053;-74
2023/04/29 09:28:21;;;;;;;40.58;20.30;;;;;;;12.66;93.38;101909.22;5203069;22;20050;-74
2023/04/29 09:30:47;;;;;;;40.33;22.40;;;;;;;12.92;95.32;101896.06;5186613;22;20092;-68
2023/04/29 09:35:47;;;;;;;36.50;21.00;;;;;;;13.33;91.18;101903.38;5153516;22;20053;-68
2023/04/29 09:38:14;;;;;;;33.53;18.70;;;;;;;13.37;87.91;101900.94;5109224;23;20074;-68
2023/04/29 09:40:41;;;;;;;36.85;19.13;;;;;;;13.31;88.01;101913.81;5098167;23;20063;-68
2023/04/29 09:43:13;;;;;;;30.83;17.25;;;;;;;13.13;83.79;101911.53;5047586;22;20041;-91
2023/04/29 09:45:48;;;;;;;32.90;17.25;;;;;;;13.02;84.40;101911.22;5025898;28;20025;-96
2023/04/29 09:48:14;;;;;;;32.00;17.95;;;;;;;12.99;85.08;101913.72;5187609;23;20184;-68
2023/04/29 09:50:45;;;;;;;33.78;18.48;;;;;;;13.02;87.06;101918.16;5219830;22;20045;-68
2023/04/29 09:55:53;;;;;;;33.83;18.20;;;;;;;13.17;89.37;101925.59;5170182;22;20745;-69
2023/04/29 09:58:30;;;;;;;32.10;16.55;;;;;;;13.25;86.86;101920.59;5084069;22;20131;-69
2023/04/29 10:05:46;;;;;;;27.77;15.57;;;;;;;13.56;85.79;101932.91;5174391;22;1077160;-69
2023/04/29 10:08:12;;;;;;;33.88;17.30;;;;;;;13.44;84.73;101930.81;5191849;22;20080;-69
2023/04/29 10:10:37;;;;;;;35.30;18.88;;;;;;;13.39;86.61;101935.00;5125191;23;20286;-69
2023/04/29 10:20:47;;;;;;;34.67;17.73;;;;;;;13.54;83.65;101945.03;5288130;22;20028;-70
2023/04/29 10:23:13;;;;;;;52.63;29.30;;;;;;;13.44;83.74;101943.91;5392523;22;20127;-70
2023/04/29 10:25:41;;;;;;;74.93;35.78;;;;;;;13.38;84.37;101941.06;5207622;23;20164;-76
2023/04/29 10:28:15;;;;;;;45.70;25.23;;;;;;;13.39;83.03;101943.75;5196806;22;20024;-70
2023/04/29 10:30:43;;;;;;;28.55;15.95;;;;;;;13.45;83.16;101939.53;5014933;28;20068;-68
2023/04/29 10:33:10;;;;;;;663.63;61.50;;;;;;;13.53;82.97;101948.53;5111597;22;20052;-69
2023/04/29 10:35:36;;;;;;;180.27;26.30;;;;;;;13.55;83.75;101942.47;5037860;28;20030;-68
2023/04/29 10:38:10;;;;;;;174.45;26.98;;;;;;;13.53;83.03;101949.41;5157322;22;20050;-81
2023/04/29 10:40:42;;;;;;;153.35;28.25;;;;;;;13.54;85.12;101951.19;5161666;22;20065;-96
2023/04/29 10:43:07;;;;;;;268.73;48.30;;;;;;;13.55;89.96;101941.59;5142951;22;20132;-67
2023/04/29 10:45:45;;;;;;;;;;;;;;;;;;;;;
2023/04/29 10:48:23;;;;;;;53.97;19.80;;;;;;;13.58;87.20;101944.28;5057216;22;20126;-78
2023/04/29 10:50:57;;;;;;;36.85;17.88;;;;;;;13.60;84.01;101947.84;5166472;23;20041;-96
2023/04/29 10:58:34;;;;;;;39.35;18.98;;;;;;;13.58;84.08;101957.38;5016297;28;20042;-70
2023/04/29 11:00:59;;;;;;;36.42;16.30;;;;;;;13.54;78.18;101958.13;5021145;28;20056;-69
2023/04/29 11:03:58;;;;;;;56.47;23.42;;;;;;;13.56;84.82;101959.06;5039082;22;20125;-96
2023/04/29 11:11:24;;;;;;;28.10;15.37;;;;;;;13.54;83.26;101961.66;5394070;22;20102;-70
2023/04/29 11:13:49;;;;;;;26.23;15.02;;;;;;;13.52;81.47;101965.06;5143300;23;20239;-70
2023/04/29 11:19:08;;;;;;;28.55;15.48;;;;;;;13.51;83.06;101965.91;5107044;23;20046;-70
2023/04/29 11:21:36;;;;;;;27.58;16.20;;;;;;;13.52;84.93;101962.44;5202260;22;20068;-70
2023/04/29 11:24:03;;;;;;;27.45;14.10;;;;;;;13.50;83.04;101961.53;5407089;22;21234;-70
2023/04/29 11:31:32;;;;;;;23.90;14.48;;;;;;;13.54;84.38;101955.50;5199527;23;20072;-70
2023/04/29 11:36:31;;;;;;;26.83;15.38;;;;;;;13.84;83.11;101949.38;5074474;22;20072;-69
2023/04/29 11:39:19;;;;;;;27.90;15.40;;;;;;;13.97;84.06;101955.84;5046204;23;20049;-96
2023/04/29 11:41:45;;;;;;;26.67;14.93;;;;;;;14.11;83.69;101958.84;5050963;23;20548;-70
2023/04/29 11:44:10;;;;;;;23.27;13.73;;;;;;;14.14;77.18;101957.19;5248037;23;20034;-70
2023/04/29 11:46:36;;;;;;;22.85;14.13;;;;;;;14.14;79.04;101949.34;5421648;22;20053;-69
2023/04/29 11:49:01;;;;;;;22.55;13.88;;;;;;;14.18;75.95;101952.91;5034968;28;20041;-70
2023/04/29 11:51:27;;;;;;;23.38;14.25;;;;;;;14.19;80.96;101955.59;5394621;22;20023;-70
2023/04/29 11:53:52;;;;;;;21.83;12.63;;;;;;;14.20;79.95;101964.34;5236422;22;20172;-76
2023/04/29 11:56:24;;;;;;;20.80;12.07;;;;;;;14.23;77.29;101960.03;5018261;28;20018;-76
2023/04/29 11:58:52;;;;;;;16.77;11.38;;;;;;;14.24;76.11;101964.47;5120990;23;20053;-70
2023/04/29 12:01:19;;;;;;;17.00;10.90;;;;;;;14.22;74.00;101970.50;5203831;22;20095;-69
2023/04/29 12:03:45;;;;;;;21.13;11.90;;;;;;;14.22;74.77;101962.63;5202336;23;20699;-70
2023/04/29 12:06:12;;;;;;;19.60;11.73;;;;;;;14.28;75.46;101970.69;5019068;28;20029;-69
2023/04/29 12:08:38;;;;;;;25.60;12.55;;;;;;;14.37;74.47;101964.78;5191626;22;20057;-70
2023/04/29 12:11:06;;;;;;;19.65;12.40;;;;;;;14.51;77.06;101965.13;5040433;28;20047;-70
2023/04/29 12:13:35;;;;;;;19.90;11.65;;;;;;;14.64;79.22;101961.13;5038985;28;20471;-70
2023/04/29 12:18:38;;;;;;;22.02;12.95;;;;;;;14.85;78.64;101963.38;5156149;22;20044;-70
2023/04/29 12:23:42;;;;;;;18.50;11.70;;;;;;;15.01;76.39;101962.00;5061865;22;20495;-96
2023/04/29 12:26:08;;;;;;;19.55;11.60;;;;;;;15.16;74.86;101957.09;5155735;23;20025;-70
2023/04/29 12:28:33;;;;;;;18.15;12.10;;;;;;;15.34;72.87;101961.88;5043375;28;20078;-70
2023/04/29 12:34:04;;;;;;;16.17;11.73;;;;;;;15.50;73.26;101962.19;5221898;22;20131;-70
2023/04/29 12:36:30;;;;;;;18.00;11.25;;;;;;;15.34;69.23;101964.50;5396545;22;20054;-70
2023/04/29 12:38:57;;;;;;;18.70;11.43;;;;;;;15.19;73.04;101965.03;5183332;23;20058;-70
2023/04/29 12:43:59;;;;;;;18.20;11.32;;;;;;;15.05;73.03;101964.75;5075579;23;20065;-70
2023/04/29 12:51:23;;;;;;;17.15;11.43;;;;;;;15.25;73.60;101966.91;5230363;22;20056;-70
2023/04/29 12:53:49;;;;;;;16.80;10.65;;;;;;;15.31;69.98;101967.06;5206710;22;20033;-76
2023/04/29 12:56:16;;;;;;;20.92;11.07;;;;;;;15.50;74.96;101967.44;5212121;22;20136;-70
2023/04/29 12:58:42;;;;;;;16.27;10.73;;;;;;;15.60;73.91;101969.44;5024215;28;20057;-70
2023/04/29 13:01:07;;;;;;;16.33;11.27;;;;;;;15.69;72.45;101974.00;5332115;22;20867;-70
2023/04/29 13:03:32;;;;;;;15.68;11.15;;;;;;;15.69;71.28;101972.25;5043438;28;20500;-70
2023/04/29 13:06:41;;;;;;;16.77;10.88;;;;;;;15.81;74.32;101972.53;5237658;22;20064;-96
2023/04/29 13:09:58;;;;;;;;;;;;;;;;;;;;;
2023/04/29 13:15:21;;;;;;;39.15;19.35;;;;;;;15.85;69.26;101967.34;5022941;28;20053;-71
2023/04/29 13:17:47;;;;;;;31.73;15.65;;;;;;;15.75;72.38;101967.09;5023376;28;20029;-70
2023/04/29 13:20:14;;;;;;;33.85;15.40;;;;;;;15.65;72.17;101968.66;5022964;28;20102;-71
2023/04/29 13:22:39;;;;;;;22.40;11.75;;;;;;;15.54;73.09;101966.66;5023701;28;20041;-70
2023/04/29 13:25:05;;;;;;;18.13;11.40;;;;;;;15.44;71.26;101963.84;5023651;28;20043;-70
2023/04/29 13:27:30;;;;;;;24.35;15.15;;;;;;;15.34;67.78;101968.84;5023784;28;20437;-69
2023/04/29 13:29:56;;;;;;;18.05;11.45;;;;;;;15.24;66.85;101970.41;5022849;28;20480;-69
2023/04/29 13:32:22;;;;;;;17.73;10.32;;;;;;;15.19;66.34;101972.03;5025395;28;20040;-69
2023/04/29 13:34:48;;;;;;;14.35;9.60;;;;;;;15.22;69.97;101978.25;5025752;28;20025;-69
2023/04/29 13:37:13;;;;;;;15.70;9.95;;;;;;;15.28;70.68;101977.50;5027183;28;20033;-69
2023/04/29 13:39:39;;;;;;;16.65;10.10;;;;;;;15.36;70.86;101977.66;5025863;28;20026;-69
2023/04/29 13:42:05;;;;;;;15.65;9.85;;;;;;;15.45;68.96;101973.50;5025472;28;20029;-69
2023/04/29 13:44:30;;;;;;;14.70;9.40;;;;;;;15.53;67.25;101970.16;5025530;28;20052;-69
2023/04/29 13:46:56;;;;;;;15.55;9.32;;;;;;;15.49;65.67;101966.56;5023370;28;20075;-69
2023/04/29 13:49:21;;;;;;;15.55;10.05;;;;;;;15.53;68.29;101972.78;5025871;28;20071;-69
2023/04/29 13:51:47;;;;;;;15.38;9.38;;;;;;;15.57;69.54;101974.59;5025466;28;20563;-69
2023/04/29 13:54:12;;;;;;;14.63;10.30;;;;;;;15.61;69.18;101976.44;5025577;28;20475;-69
2023/04/29 13:56:37;;;;;;;15.38;9.27;;;;;;;15.61;68.90;101973.81;5026240;28;20480;-69
2023/04/29 13:59:02;;;;;;;15.70;9.20;;;;;;;15.62;68.79;101978.22;5029993;28;20282;-69
2023/04/29 14:01:28;;;;;;;13.57;8.95;;;;;;;15.58;64.64;101981.63;5012046;28;20253;-69
2023/04/29 14:03:53;;;;;;;13.98;9.25;;;;;;;15.60;63.71;101977.31;5029999;28;20037;-69
2023/04/29 14:06:18;;;;;;;14.45;9.13;;;;;;;15.63;65.83;101969.50;5029165;28;20523;-69
2023/04/29 14:08:44;;;;;;;14.50;9.32;;;;;;;15.69;68.89;101981.88;5028594;28;20029;-69
2023/04/29 14:11:10;;;;;;;13.70;8.52;;;;;;;15.69;63.90;101985.38;5004215;28;20025;-70
2023/04/29 14:13:35;;;;;;;13.45;9.20;;;;;;;15.67;65.64;101980.94;5028107;28;20050;-69
2023/04/29 14:16:03;;;;;;;13.85;9.18;;;;;;;15.71;66.50;101988.03;5028927;28;20029;-69
2023/04/29 14:18:29;;;;;;;12.63;8.48;;;;;;;15.70;65.09;101987.16;5028462;28;20029;-69
2023/04/29 14:20:55;;;;;;;12.68;8.55;;;;;;;15.75;68.19;101984.63;5007662;28;20518;-69
2023/04/29 14:23:20;;;;;;;13.13;8.98;;;;;;;15.75;65.76;101990.75;5028606;28;20586;-69
2023/04/29 14:25:46;;;;;;;12.40;8.48;;;;;;;15.74;67.57;101994.25;5006341;28;20029;-68
2023/04/29 14:28:57;;;;;;;;;;;;;;;;;;;;;
2023/04/29 14:33:52;;;;;;;11.73;7.45;;;;;;;15.62;66.20;101994.00;5094701;22;20076;-69
2023/04/29 14:36:18;;;;;;;12.50;7.75;;;;;;;15.63;65.39;101996.66;5204654;22;20144;-95
2023/04/29 14:38:43;;;;;;;13.10;7.90;;;;;;;15.69;68.43;101995.91;5010478;22;20133;-69
2023/04/29 14:41:09;;;;;;;12.60;7.70;;;;;;;15.70;68.74;101995.06;4996425;28;20046;-69
2023/04/29 14:43:34;;;;;;;13.30;8.20;;;;;;;15.68;67.77;102002.00;4997011;28;20124;-69
2023/04/29 14:46:00;;;;;;;14.13;8.23;;;;;;;15.69;65.68;101995.03;4994141;28;20054;-69
2023/04/29 14:48:25;;;;;;;13.00;8.07;;;;;;;15.74;68.65;101998.63;4995904;28;20408;-69
2023/04/29 14:50:50;;;;;;;12.82;8.60;;;;;;;15.80;68.23;102004.94;4997285;28;20105;-69
2023/04/29 14:55:45;;;;;;;;;;;;;;;16.04;69.60;102001.00;5039825;28;20626;-69